Time;durP1;ratioP1;P1;durP2;ratioP2;P2;SDS_P1;SDS_P2;PMS_P1;PMS_P2;Temp;Humidity;BMP_temperature;BMP_pressure;BME280_temperature;BME280_humidity;BME280_pressure;Samples;Min_cycle;Max_cycle;Signal;HPM_P1;HPM_P2
2021/11/11 00:00:39;;;;;;;18.23;12.40;;;11.40;99.90;;;;;;4996166;28;20206;-92
2021/11/11 00:03:05;;;;;;;22.27;12.60;;;11.40;99.90;;;;;;4996952;28;20241;-94
2021/11/11 00:05:32;;;;;;;20.17;9.67;;;11.40;99.90;;;;;;4996383;28;20302;-94
2021/11/11 00:07:58;;;;;;;25.00;13.30;;;11.40;99.90;;;;;;4998035;28;20222;-94
2021/11/11 00:10:24;;;;;;;19.20;10.27;;;11.40;99.90;;;;;;5000445;28;20219;-92
2021/11/11 00:12:51;;;;;;;19.13;14.23;;;11.40;99.90;;;;;;4997168;28;20277;-91
2021/11/11 00:15:17;;;;;;;20.63;12.47;;;11.40;99.90;;;;;;4984187;28;20195;-94
2021/11/11 00:17:44;;;;;;;16.87;11.40;;;11.40;99.90;;;;;;4998803;28;20345;-93
2021/11/11 00:20:13;;;;;;;27.17;11.97;;;11.30;99.90;;;;;;4997099;28;20261;-93
2021/11/11 00:22:41;;;;;;;22.47;11.93;;;11.40;99.90;;;;;;5016451;28;20277;-94
2021/11/11 00:25:09;;;;;;;23.73;13.27;;;11.40;99.90;;;;;;4998700;28;20272;-95
2021/11/11 00:27:35;;;;;;;37.33;12.40;;;11.40;99.90;;;;;;4999033;28;20195;-94
2021/11/11 00:30:01;;;;;;;21.63;11.27;;;11.40;99.90;;;;;;4995302;28;20208;-90
2021/11/11 00:32:27;;;;;;;15.60;10.37;;;11.40;99.90;;;;;;4995764;28;20596;-94
2021/11/11 00:34:53;;;;;;;24.17;10.37;;;11.40;99.90;;;;;;4981129;28;20759;-91
2021/11/11 00:37:20;;;;;;;24.40;11.37;;;11.40;99.90;;;;;;4996246;28;20235;-92
2021/11/11 00:39:47;;;;;;;26.23;12.43;;;11.40;99.90;;;;;;4994438;28;20188;-93
2021/11/11 00:42:14;;;;;;;24.33;10.93;;;11.40;99.90;;;;;;4997099;28;20211;-93
2021/11/11 00:44:40;;;;;;;16.67;10.60;;;11.40;99.90;;;;;;4977398;28;20263;-91
2021/11/11 00:47:06;;;;;;;17.53;12.97;;;11.40;99.90;;;;;;4996012;28;20302;-91
2021/11/11 00:49:32;;;;;;;17.87;7.63;;;11.40;99.90;;;;;;4993529;28;20265;-91
2021/11/11 00:51:58;;;;;;;19.70;13.13;;;11.40;99.90;;;;;;4977251;28;20223;-90
2021/11/11 00:54:24;;;;;;;21.17;12.30;;;11.40;99.90;;;;;;4977733;28;20191;-93
2021/11/11 00:56:50;;;;;;;20.20;10.23;;;11.40;99.90;;;;;;4977923;28;20261;-95
2021/11/11 00:59:15;;;;;;;24.53;12.30;;;11.50;99.90;;;;;;4994883;28;20273;-93
2021/11/11 01:01:41;;;;;;;19.03;10.67;;;11.50;99.90;;;;;;4977573;28;20306;-92
2021/11/11 01:04:07;;;;;;;19.13;11.50;;;11.50;99.90;;;;;;4996961;28;20247;-94
2021/11/11 01:06:34;;;;;;;17.27;11.97;;;11.50;99.90;;;;;;4995035;28;20239;-91
2021/11/11 01:09:00;;;;;;;20.83;11.20;;;11.50;99.90;;;;;;4996560;28;20241;-95
2021/11/11 01:11:26;;;;;;;22.60;13.20;;;11.50;99.90;;;;;;4996202;28;20242;-91
2021/11/11 01:13:52;;;;;;;38.40;14.40;;;11.50;99.90;;;;;;4979161;28;20234;-93
2021/11/11 01:16:18;;;;;;;17.97;11.57;;;11.50;99.90;;;;;;4978349;28;20239;-91
2021/11/11 01:18:44;;;;;;;18.93;12.23;;;11.50;99.90;;;;;;4996995;28;20551;-94
2021/11/11 01:21:10;;;;;;;24.70;11.07;;;11.50;99.90;;;;;;4995833;28;20259;-93
2021/11/11 01:23:36;;;;;;;18.73;12.93;;;11.50;99.90;;;;;;4996778;28;20224;-93
2021/11/11 01:26:03;;;;;;;30.20;11.80;;;11.50;99.90;;;;;;4998976;28;20219;-91
2021/11/11 01:28:29;;;;;;;28.17;11.37;;;11.50;99.90;;;;;;4995121;28;20230;-94
2021/11/11 01:30:55;;;;;;;35.93;14.33;;;11.60;99.90;;;;;;4996079;28;20223;-93
2021/11/11 01:33:21;;;;;;;21.13;12.77;;;11.50;99.90;;;;;;4997424;28;20214;-94
2021/11/11 01:35:47;;;;;;;31.20;12.70;;;11.50;99.90;;;;;;4997849;28;20274;-90
2021/11/11 01:38:13;;;;;;;18.13;11.20;;;11.50;99.90;;;;;;4996035;28;20217;-91
2021/11/11 01:40:39;;;;;;;32.20;12.83;;;11.50;99.90;;;;;;4980381;28;20215;-91
2021/11/11 01:43:06;;;;;;;20.67;11.07;;;11.50;99.90;;;;;;4994468;28;20331;-92
2021/11/11 01:45:38;;;;;;;23.47;13.37;;;11.50;99.90;;;;;;4997636;28;20201;-93
2021/11/11 01:48:05;;;;;;;32.23;13.77;;;11.50;99.90;;;;;;4996832;28;20212;-93
2021/11/11 01:50:32;;;;;;;35.83;13.87;;;11.50;99.90;;;;;;4998759;28;20216;-94
2021/11/11 01:52:59;;;;;;;26.03;14.77;;;11.50;99.90;;;;;;4999011;28;20219;-95
2021/11/11 01:55:25;;;;;;;23.77;13.13;;;11.50;99.90;;;;;;5001017;28;20227;-92
2021/11/11 01:57:51;;;;;;;23.70;12.20;;;11.50;99.90;;;;;;4985671;28;20188;-93
2021/11/11 02:00:27;;;;;;;30.77;15.67;;;11.40;99.90;;;;;;4999970;28;20192;-93
2021/11/11 02:02:58;;;;;;;29.37;16.57;;;11.40;99.90;;;;;;5000894;28;20250;-90
2021/11/11 02:05:25;;;;;;;26.83;12.13;;;11.40;99.90;;;;;;5001528;28;20458;-95
2021/11/11 02:07:52;;;;;;;36.63;14.37;;;11.40;99.90;;;;;;4999989;28;20243;-92
2021/11/11 02:10:19;;;;;;;25.83;13.70;;;11.40;99.90;;;;;;4998940;28;20239;-95
2021/11/11 02:12:46;;;;;;;35.07;13.97;;;11.30;99.90;;;;;;4991678;28;20234;-91
2021/11/11 02:15:13;;;;;;;26.57;12.60;;;11.40;99.90;;;;;;4993888;28;21102;-92
2021/11/11 02:17:39;;;;;;;26.70;13.17;;;11.30;99.90;;;;;;4982870;28;20211;-93
2021/11/11 02:20:11;;;;;;;27.53;13.70;;;11.40;99.90;;;;;;4998112;28;20228;-92
2021/11/11 02:22:37;;;;;;;20.10;13.83;;;11.40;99.90;;;;;;4999504;28;20239;-95
2021/11/11 02:25:08;;;;;;;17.03;11.43;;;11.30;99.90;;;;;;5014899;28;20250;-93
2021/11/11 02:27:34;;;;;;;26.83;12.00;;;11.30;99.90;;;;;;4995878;28;20284;-93
2021/11/11 02:30:00;;;;;;;31.53;12.37;;;11.30;99.90;;;;;;4996696;28;21068;-94
2021/11/11 02:32:30;;;;;;;27.40;12.73;;;11.30;99.90;;;;;;4996696;28;20220;-94
2021/11/11 02:34:56;;;;;;;32.93;11.10;;;11.30;99.90;;;;;;4997515;28;20215;-95
2021/11/11 02:37:27;;;;;;;32.47;13.00;;;11.30;99.90;;;;;;4996811;28;20238;-93
2021/11/11 02:39:53;;;;;;;22.37;11.93;;;11.30;99.90;;;;;;4995706;28;20238;-91
2021/11/11 02:42:19;;;;;;;26.67;11.70;;;11.30;99.90;;;;;;4996203;28;20603;-93
2021/11/11 02:44:45;;;;;;;18.07;11.00;;;11.30;99.90;;;;;;4999546;28;20265;-92
2021/11/11 02:47:11;;;;;;;27.80;12.50;;;11.30;99.90;;;;;;4998558;28;20216;-93
2021/11/11 02:49:37;;;;;;;33.40;12.50;;;11.30;99.90;;;;;;4995547;28;20223;-94
2021/11/11 02:52:04;;;;;;;31.73;14.00;;;11.30;99.90;;;;;;4981889;28;20690;-94
2021/11/11 02:54:37;;;;;;;26.53;11.20;;;11.30;99.90;;;;;;4979548;28;20207;-94
2021/11/11 02:57:17;;;;;;;16.23;10.83;;;11.30;99.90;;;;;;5013056;28;20735;-94
2021/11/11 02:59:42;;;;;;;19.73;9.57;;;11.30;99.90;;;;;;4999104;28;20211;-95
2021/11/11 03:02:23;;;;;;;19.17;12.83;;;11.40;99.90;;;;;;4982015;28;20306;-91
2021/11/11 03:04:50;;;;;;;23.93;12.37;;;11.40;99.90;;;;;;4997067;28;20236;-96
2021/11/11 03:07:15;;;;;;;28.03;11.67;;;11.40;99.90;;;;;;4998103;28;20420;-94
2021/11/11 03:09:43;;;;;;;28.50;12.00;;;11.40;99.90;;;;;;4993391;28;20692;-94
2021/11/11 03:12:09;;;;;;;26.87;10.83;;;11.40;99.90;;;;;;4995066;28;20219;-91
2021/11/11 03:14:35;;;;;;;16.70;11.23;;;11.40;99.90;;;;;;4993143;28;20222;-91
2021/11/11 03:17:04;;;;;;;28.87;11.50;;;11.40;99.90;;;;;;4998479;28;20208;-93
2021/11/11 03:19:30;;;;;;;30.87;13.83;;;11.50;99.90;;;;;;4997459;28;20230;-94
2021/11/11 03:21:55;;;;;;;21.20;12.33;;;11.40;99.90;;;;;;4998621;28;20529;-95
2021/11/11 03:24:21;;;;;;;27.93;13.43;;;11.50;99.90;;;;;;4982742;28;20823;-92
2021/11/11 03:26:47;;;;;;;27.73;12.87;;;11.50;99.90;;;;;;4981985;28;20693;-92
2021/11/11 03:29:13;;;;;;;34.27;13.77;;;11.50;99.90;;;;;;4999016;28;20227;-91
2021/11/11 03:31:38;;;;;;;18.87;12.00;;;11.50;99.90;;;;;;4998193;28;20686;-92
2021/11/11 03:34:04;;;;;;;41.10;14.20;;;11.50;99.90;;;;;;4981489;28;20322;-93
2021/11/11 03:36:30;;;;;;;20.90;11.83;;;11.50;99.90;;;;;;4984261;28;20188;-92
2021/11/11 03:38:55;;;;;;;23.70;12.83;;;11.50;99.90;;;;;;5001701;28;20354;-94
2021/11/11 03:41:22;;;;;;;19.57;11.33;;;11.50;99.90;;;;;;4982844;28;20215;-95
2021/11/11 03:43:48;;;;;;;21.93;12.23;;;11.50;99.90;;;;;;5001745;28;20253;-95
2021/11/11 03:46:14;;;;;;;22.17;12.63;;;11.50;99.90;;;;;;5001076;28;20215;-95
2021/11/11 03:48:40;;;;;;;28.57;12.33;;;11.50;99.90;;;;;;5001226;28;20630;-94
2021/11/11 03:51:06;;;;;;;28.33;10.97;;;11.50;99.90;;;;;;4998997;28;20267;-95
2021/11/11 03:53:31;;;;;;;27.40;12.57;;;11.50;99.90;;;;;;4998939;28;20230;-92
2021/11/11 03:55:58;;;;;;;17.93;9.87;;;11.50;99.90;;;;;;5000059;28;20223;-94
2021/11/11 03:58:23;;;;;;;23.87;11.40;;;11.50;99.90;;;;;;5000069;28;21051;-94
2021/11/11 04:00:49;;;;;;;34.80;12.83;;;11.50;99.90;;;;;;5002926;28;20303;-95
2021/11/11 04:03:16;;;;;;;30.40;12.50;;;11.50;99.90;;;;;;5003893;28;20282;-92
2021/11/11 04:05:42;;;;;;;24.70;10.40;;;11.50;99.90;;;;;;5002815;28;20555;-91
2021/11/11 04:08:08;;;;;;;27.93;12.43;;;11.60;99.90;;;;;;5006229;28;20280;-95
2021/11/11 04:10:33;;;;;;;31.67;13.23;;;11.60;99.90;;;;;;4997253;28;20226;-93
2021/11/11 04:13:02;;;;;;;21.90;12.13;;;11.60;99.90;;;;;;5005994;28;20220;-91
2021/11/11 04:15:32;;;;;;;24.00;11.80;;;11.60;99.90;;;;;;5003743;28;20178;-90
2021/11/11 04:18:01;;;;;;;30.23;13.67;;;11.60;99.90;;;;;;5005308;28;20248;-93
2021/11/11 04:20:27;;;;;;;27.17;13.90;;;11.70;99.90;;;;;;5005874;28;20223;-89
2021/11/11 04:22:54;;;;;;;17.90;11.20;;;11.60;99.90;;;;;;5005354;28;20354;-92
2021/11/11 04:25:30;;;;;;;22.57;10.50;;;11.60;99.90;;;;;;5002934;28;20231;-95
2021/11/11 04:28:03;;;;;;;32.13;14.67;;;11.60;99.90;;;;;;5005347;28;20680;-93
2021/11/11 04:30:34;;;;;;;26.03;12.70;;;11.60;99.90;;;;;;5001733;28;20195;-93
2021/11/11 04:33:02;;;;;;;29.47;14.03;;;11.70;99.90;;;;;;5004993;28;20216;-94
2021/11/11 04:35:29;;;;;;;31.37;12.97;;;11.70;99.90;;;;;;5004148;28;20227;-91
2021/11/11 04:38:01;;;;;;;22.13;13.67;;;11.70;99.90;;;;;;5004280;28;20219;-90
2021/11/11 05:05:01;;;;;;;18.63;12.00;;;11.80;99.90;;;;;;4996101;28;20220;-95
2021/11/11 05:07:26;;;;;;;29.30;13.53;;;11.80;99.90;;;;;;4996788;28;20223;-94
2021/11/11 05:09:52;;;;;;;21.40;11.83;;;11.80;99.90;;;;;;4997140;28;20184;-95
2021/11/11 05:12:18;;;;;;;20.40;11.60;;;11.90;99.90;;;;;;5010968;28;20570;-96
2021/11/11 05:14:45;;;;;;;29.13;11.20;;;11.80;99.90;;;;;;4997437;28;20228;-89
2021/11/11 05:17:10;;;;;;;26.93;10.57;;;11.80;99.90;;;;;;5000496;28;20228;-94
2021/11/11 05:19:38;;;;;;;32.00;11.03;;;11.80;99.90;;;;;;4997754;28;20231;-94
2021/11/11 05:22:05;;;;;;;28.13;12.73;;;11.80;99.90;;;;;;4997495;28;20574;-91
2021/11/11 05:24:32;;;;;;;30.23;12.60;;;11.80;99.90;;;;;;4999797;28;20240;-94
2021/11/11 05:27:04;;;;;;;28.33;12.93;;;11.70;99.90;;;;;;4998827;28;20261;-92
2021/11/11 05:29:31;;;;;;;25.67;11.30;;;11.70;99.90;;;;;;4997810;28;20306;-92
2021/11/11 05:31:57;;;;;;;37.20;12.97;;;11.70;99.90;;;;;;5004221;28;20251;-92
2021/11/11 05:34:23;;;;;;;32.27;12.53;;;11.70;99.90;;;;;;5000252;28;20662;-93
2021/11/11 05:36:49;;;;;;;32.30;12.87;;;11.70;99.90;;;;;;5002741;28;20252;-94
2021/11/11 05:39:15;;;;;;;27.53;14.13;;;11.70;99.90;;;;;;4997639;28;20194;-96
2021/11/11 05:41:41;;;;;;;22.37;13.60;;;11.70;99.90;;;;;;4998865;28;20586;-92
2021/11/11 05:44:08;;;;;;;18.43;11.97;;;11.80;99.90;;;;;;4999773;28;20231;-94
2021/11/11 05:46:34;;;;;;;23.20;11.77;;;11.80;99.90;;;;;;4998216;28;20234;-93
2021/11/11 05:49:00;;;;;;;28.63;13.23;;;11.80;99.90;;;;;;4995519;28;20223;-91
2021/11/11 05:51:25;;;;;;;17.27;9.90;;;11.80;99.90;;;;;;4995262;28;20229;-93
2021/11/11 05:53:52;;;;;;;27.27;11.27;;;11.70;99.90;;;;;;4995717;28;20228;-90
2021/11/11 05:56:17;;;;;;;42.37;14.03;;;11.70;99.90;;;;;;4994786;28;20211;-94
2021/11/11 05:58:44;;;;;;;31.30;12.63;;;11.80;99.90;;;;;;4980498;28;20254;-93
2021/11/11 06:01:11;;;;;;;27.67;11.97;;;11.80;99.90;;;;;;4993981;28;20283;-91
2021/11/11 06:03:37;;;;;;;29.83;13.50;;;11.80;99.90;;;;;;5000341;28;20235;-92
2021/11/11 06:06:03;;;;;;;50.53;13.97;;;11.80;99.90;;;;;;5001041;28;20202;-91
2021/11/11 06:08:29;;;;;;;28.97;10.57;;;11.80;99.90;;;;;;5000929;28;20315;-90
2021/11/11 06:10:55;;;;;;;29.97;10.73;;;11.80;99.90;;;;;;4998045;28;20317;-95
2021/11/11 06:13:24;;;;;;;26.20;12.90;;;11.80;99.90;;;;;;5000279;28;21111;-91
2021/11/11 06:15:52;;;;;;;23.67;13.63;;;11.90;99.90;;;;;;4997510;28;20196;-92
2021/11/11 06:18:19;;;;;;;33.53;13.03;;;11.80;99.90;;;;;;4985478;28;20191;-94
2021/11/11 06:20:47;;;;;;;29.17;11.07;;;11.80;99.90;;;;;;4998067;28;20227;-90
2021/11/11 06:23:14;;;;;;;16.57;10.43;;;11.80;99.90;;;;;;4981655;28;20345;-94
2021/11/11 06:25:43;;;;;;;23.67;12.00;;;11.90;99.90;;;;;;4997806;28;20219;-92
2021/11/11 06:28:09;;;;;;;24.67;12.20;;;11.80;99.90;;;;;;4999634;28;20207;-93
2021/11/11 06:30:36;;;;;;;21.23;11.97;;;11.90;99.90;;;;;;4995256;28;20194;-92
2021/11/11 06:33:02;;;;;;;27.97;11.93;;;11.90;99.90;;;;;;4998419;28;20205;-94
2021/11/11 06:35:30;;;;;;;31.57;11.03;;;11.90;99.90;;;;;;5014626;28;20310;-94
2021/11/11 06:37:57;;;;;;;32.93;12.97;;;11.90;99.90;;;;;;4997504;28;20216;-86
2021/11/11 06:40:24;;;;;;;41.10;11.17;;;11.80;99.90;;;;;;4996404;28;20259;-95
2021/11/11 06:42:50;;;;;;;25.40;11.20;;;11.80;99.90;;;;;;5020090;28;20221;-93
2021/11/11 06:45:16;;;;;;;23.10;12.20;;;11.80;99.90;;;;;;5009197;28;20279;-92
2021/11/11 06:47:56;;;;;;;25.40;10.60;;;11.80;99.90;;;;;;5006602;28;20215;-91
2021/11/11 06:50:22;;;;;;;23.23;13.27;;;11.80;99.90;;;;;;5004109;28;20254;-91
2021/11/11 06:52:47;;;;;;;21.83;12.13;;;11.90;99.90;;;;;;4999073;28;20247;-91
2021/11/11 06:55:13;;;;;;;30.03;11.67;;;11.80;99.90;;;;;;4996575;28;20307;-90
2021/11/11 06:57:39;;;;;;;31.47;11.07;;;11.90;99.90;;;;;;4982684;28;20188;-93
2021/11/11 07:00:11;;;;;;;24.60;12.43;;;11.90;99.90;;;;;;4997848;28;20192;-89
2021/11/11 07:02:37;;;;;;;29.67;13.40;;;11.90;99.90;;;;;;5007197;28;20234;-89
2021/11/11 07:05:03;;;;;;;31.40;13.80;;;11.90;99.90;;;;;;4997620;28;20227;-93
2021/11/11 07:07:29;;;;;;;26.80;13.13;;;11.90;99.90;;;;;;5001587;28;20279;-94
2021/11/11 07:09:55;;;;;;;23.97;14.17;;;11.80;99.90;;;;;;5004546;28;20289;-91
2021/11/11 07:12:21;;;;;;;21.17;11.00;;;11.80;99.90;;;;;;4996074;28;20184;-89
2021/11/11 07:14:47;;;;;;;24.10;11.67;;;11.80;99.90;;;;;;4996820;28;20220;-91
2021/11/11 07:17:16;;;;;;;27.10;11.27;;;11.80;99.90;;;;;;5000193;28;20974;-92
2021/11/11 07:19:49;;;;;;;23.93;11.77;;;11.80;99.90;;;;;;5003903;28;20230;-95
2021/11/11 07:22:15;;;;;;;21.97;10.63;;;11.80;99.90;;;;;;5005661;28;20219;-93
2021/11/11 07:24:43;;;;;;;28.00;10.87;;;11.70;99.90;;;;;;4999530;28;20908;-93
2021/11/11 07:27:09;;;;;;;19.40;10.63;;;11.80;99.90;;;;;;5000544;28;21253;-91
2021/11/11 07:29:34;;;;;;;17.67;11.57;;;11.70;99.90;;;;;;5000558;28;20231;-92
2021/11/11 07:32:00;;;;;;;20.17;9.97;;;11.80;99.90;;;;;;4997827;28;20719;-91
2021/11/11 07:34:27;;;;;;;19.07;12.20;;;11.70;99.90;;;;;;4993356;28;21352;-93
2021/11/11 07:36:54;;;;;;;22.93;9.67;;;11.70;99.90;;;;;;4980807;28;20187;-90
2021/11/11 07:39:21;;;;;;;23.23;11.47;;;11.70;99.90;;;;;;4982224;28;20556;-91
2021/11/11 07:41:47;;;;;;;24.70;13.07;;;11.70;99.90;;;;;;4998332;28;20254;-91
2021/11/11 07:44:13;;;;;;;26.17;11.87;;;11.60;99.90;;;;;;4999127;28;20231;-92
2021/11/11 07:46:42;;;;;;;18.23;11.40;;;11.70;99.90;;;;;;4995884;28;20253;-91
2021/11/11 07:49:10;;;;;;;23.87;12.17;;;11.70;99.90;;;;;;4996948;28;20302;-91
2021/11/11 07:51:36;;;;;;;22.57;12.43;;;11.70;99.90;;;;;;4996779;28;20263;-86
2021/11/11 07:54:02;;;;;;;19.10;9.93;;;11.70;99.90;;;;;;5003201;28;20200;-94
2021/11/11 07:56:28;;;;;;;26.00;12.80;;;11.70;99.90;;;;;;5005665;28;20207;-90
2021/11/11 07:58:55;;;;;;;24.40;13.57;;;11.70;99.90;;;;;;5002411;28;20228;-89
2021/11/11 08:01:21;;;;;;;22.87;13.83;;;11.70;99.90;;;;;;4986450;28;20227;-90
2021/11/11 08:03:47;;;;;;;25.47;12.70;;;11.70;99.90;;;;;;5000121;28;20246;-87
2021/11/11 08:06:13;;;;;;;17.47;9.67;;;11.70;99.90;;;;;;5019073;28;20693;-87
2021/11/11 08:08:40;;;;;;;14.37;8.73;;;11.70;99.90;;;;;;4983749;28;20216;-89
2021/11/11 08:11:06;;;;;;;27.50;13.33;;;11.70;99.90;;;;;;5001588;28;20287;-89
2021/11/11 08:13:32;;;;;;;20.37;13.33;;;11.80;99.90;;;;;;5004680;28;20233;-89
2021/11/11 08:15:59;;;;;;;16.47;11.73;;;11.90;99.90;;;;;;5005923;28;20224;-89
2021/11/11 08:18:25;;;;;;;23.63;13.50;;;11.90;99.90;;;;;;5007886;28;20534;-89
2021/11/11 08:20:51;;;;;;;25.63;12.47;;;11.90;99.90;;;;;;5010018;28;20246;-90
2021/11/11 08:23:18;;;;;;;30.50;14.17;;;12.00;99.90;;;;;;5008607;28;20231;-89
2021/11/11 08:25:48;;;;;;;22.07;11.40;;;12.10;99.90;;;;;;5009916;28;20368;-88
2021/11/11 08:28:15;;;;;;;16.70;10.77;;;12.20;99.90;;;;;;5010154;28;20238;-88
2021/11/11 08:30:41;;;;;;;18.67;11.67;;;12.20;99.90;;;;;;5011128;28;20282;-88
2021/11/11 08:33:07;;;;;;;17.20;11.50;;;12.30;99.90;;;;;;5017840;28;20495;-87
2021/11/11 08:35:35;;;;;;;18.60;11.20;;;12.50;99.90;;;;;;5013380;28;20277;-87
2021/11/11 08:38:01;;;;;;;16.03;11.23;;;12.50;99.90;;;;;;4993117;28;20271;-89
2021/11/11 08:40:27;;;;;;;14.80;11.03;;;12.50;99.90;;;;;;5004445;28;20248;-89
2021/11/11 08:42:56;;;;;;;27.00;11.87;;;12.50;99.90;;;;;;5004040;28;20211;-89
2021/11/11 08:45:24;;;;;;;22.10;12.10;;;12.50;99.90;;;;;;5005602;28;20248;-88
2021/11/11 08:47:51;;;;;;;19.37;12.20;;;12.60;99.90;;;;;;5003100;28;20212;-88
2021/11/11 08:50:17;;;;;;;15.13;10.17;;;12.60;99.90;;;;;;5002827;28;20220;-90
2021/11/11 08:52:44;;;;;;;24.33;17.53;;;12.50;99.90;;;;;;5000954;28;20223;-91
2021/11/11 08:55:15;;;;;;;29.50;11.63;;;12.60;99.90;;;;;;5004286;28;20219;-86
2021/11/11 08:57:42;;;;;;;33.77;18.20;;;12.60;99.90;;;;;;5007729;28;20195;-84
2021/11/11 09:00:16;;;;;;;28.10;12.87;;;12.70;99.90;;;;;;5001645;28;20200;-89
2021/11/11 09:02:43;;;;;;;25.67;13.83;;;12.80;99.90;;;;;;5000085;28;20243;-87
2021/11/11 09:05:10;;;;;;;30.10;18.30;;;13.00;99.90;;;;;;5003290;28;20318;-88
2021/11/11 09:07:40;;;;;;;18.13;11.67;;;13.10;99.90;;;;;;4995785;28;20220;-89
2021/11/11 09:10:14;;;;;;;22.83;11.97;;;13.10;99.90;;;;;;4997070;28;20282;-84
2021/11/11 09:12:40;;;;;;;23.17;14.00;;;13.20;99.90;;;;;;5003502;28;20190;-89
2021/11/11 09:15:11;;;;;;;35.70;22.80;;;13.20;99.90;;;;;;5004758;28;20187;-91
2021/11/11 09:17:38;;;;;;;23.67;12.13;;;13.30;99.90;;;;;;5017224;28;20309;-88
2021/11/11 09:20:07;;;;;;;20.13;11.93;;;13.40;99.90;;;;;;5004861;28;20247;-85
2021/11/11 09:22:34;;;;;;;19.93;11.17;;;13.50;99.90;;;;;;5006146;28;20287;-88
2021/11/11 09:25:05;;;;;;;19.67;10.70;;;13.30;99.90;;;;;;5000762;28;20223;-90
2021/11/11 09:27:32;;;;;;;22.93;11.40;;;13.40;99.90;;;;;;5003141;28;20196;-87
2021/11/11 09:29:58;;;;;;;20.43;12.93;;;13.50;99.90;;;;;;5001639;28;20911;-87
2021/11/11 09:32:24;;;;;;;24.67;13.00;;;13.70;99.90;;;;;;4997683;28;20700;-91
2021/11/11 09:34:50;;;;;;;17.40;11.93;;;13.90;99.90;;;;;;4990016;28;20227;-91
2021/11/11 09:37:16;;;;;;;22.73;10.33;;;14.00;99.90;;;;;;4995148;28;20478;-93
2021/11/11 09:39:42;;;;;;;16.27;8.63;;;14.30;99.90;;;;;;4993180;28;20184;-89
2021/11/11 09:42:09;;;;;;;15.70;8.97;;;14.40;99.90;;;;;;4975782;28;21181;-89
2021/11/11 09:44:35;;;;;;;11.27;8.50;;;14.50;99.90;;;;;;4991722;28;20362;-91
2021/11/11 09:47:01;;;;;;;15.07;7.53;;;14.60;99.90;;;;;;4990057;28;20216;-89
2021/11/11 09:49:27;;;;;;;11.20;6.63;;;14.50;99.90;;;;;;4991414;28;20251;-92
2021/11/11 09:51:54;;;;;;;10.27;6.17;;;14.50;99.90;;;;;;4993677;28;20195;-92
2021/11/11 09:58:34;;;;;;;8.33;6.90;;;14.40;99.90;;;;;;4993568;28;20200;-91
2021/11/11 09:59:54;;;;;;;8.17;4.03;;;14.20;99.90;;;;;;4994058;28;20223;-88
2021/11/11 10:02:19;;;;;;;12.37;5.47;;;14.20;99.90;;;;;;4988910;28;20219;-88
2021/11/11 10:04:45;;;;;;;8.60;4.40;;;14.20;99.90;;;;;;4990534;28;20289;-87
2021/11/11 10:07:11;;;;;;;8.47;4.70;;;14.30;99.90;;;;;;4992757;28;20612;-86
2021/11/11 10:09:44;;;;;;;7.00;4.13;;;14.30;99.90;;;;;;4973747;28;20596;-88
2021/11/11 10:12:18;;;;;;;7.23;3.90;;;14.30;99.90;;;;;;4977629;28;20642;-91
2021/11/11 10:14:47;;;;;;;9.20;4.23;;;14.30;99.90;;;;;;4990227;28;20227;-91
2021/11/11 10:17:14;;;;;;;5.97;3.53;;;14.40;99.90;;;;;;4979706;28;20226;-90
2021/11/11 10:19:43;;;;;;;5.93;3.37;;;14.50;99.90;;;;;;4996240;28;20236;-90
2021/11/11 10:22:32;;;;;;;6.37;3.70;;;14.60;99.90;;;;;;4994749;28;20216;-91
2021/11/11 10:25:01;;;;;;;5.57;3.00;;;14.80;99.90;;;;;;4994884;28;20235;-92
2021/11/11 10:27:31;;;;;;;3.33;2.63;;;14.90;99.90;;;;;;4994340;28;20193;-92
2021/11/11 10:30:22;;;;;;;5.20;2.57;;;14.80;99.90;;;;;;4998838;28;20311;-89
2021/11/11 10:32:54;;;;;;;2.70;1.50;;;14.70;99.90;;;;;;4996906;28;20250;-92
2021/11/11 10:35:25;;;;;;;3.50;1.87;;;14.70;99.90;;;;;;4997209;28;20838;-90
2021/11/11 10:38:01;;;;;;;1.53;1.33;;;14.70;99.90;;;;;;4990858;28;20240;-89
2021/11/11 10:40:52;;;;;;;1.27;0.77;;;14.70;99.90;;;;;;4998999;28;20227;-92
2021/11/11 10:43:25;;;;;;;1.57;1.23;;;14.80;99.90;;;;;;5001745;28;20231;-92
2021/11/11 10:45:54;;;;;;;2.90;1.20;;;14.80;99.90;;;;;;4998296;28;20200;-88
2021/11/11 10:48:23;;;;;;;1.50;0.93;;;14.80;99.90;;;;;;5006349;28;20305;-91
2021/11/11 10:50:52;;;;;;;2.87;1.40;;;14.80;99.90;;;;;;5006804;28;20223;-86
2021/11/11 10:53:27;;;;;;;1.57;0.80;;;14.90;99.90;;;;;;5016184;28;20285;-89
2021/11/11 10:55:58;;;;;;;1.90;0.57;;;15.00;99.90;;;;;;5016886;28;20219;-91
2021/11/11 10:58:30;;;;;;;1.80;1.13;;;14.80;99.90;;;;;;4998481;28;20215;-86
2021/11/11 11:01:08;;;;;;;2.20;1.23;;;14.70;99.90;;;;;;4994582;28;20211;-91
2021/11/11 11:03:44;;;;;;;2.17;1.30;;;14.70;99.90;;;;;;4998355;28;20242;-85
2021/11/11 11:06:20;;;;;;;1.13;0.87;;;14.70;99.90;;;;;;4996901;28;20279;-88
2021/11/11 11:08:48;;;;;;;1.03;0.50;;;14.80;99.90;;;;;;4998353;28;20214;-90
2021/11/11 11:11:23;;;;;;;1.27;1.17;;;14.80;99.90;;;;;;4995852;28;20233;-89
2021/11/11 11:13:55;;;;;;;1.13;0.80;;;14.70;99.90;;;;;;4996396;28;20330;-89
2021/11/11 11:16:33;;;;;;;1.50;1.33;;;14.70;99.90;;;;;;4997591;28;20220;-89
2021/11/11 11:19:13;;;;;;;1.17;1.10;;;14.70;99.90;;;;;;4994263;28;20775;-92
2021/11/11 11:21:57;;;;;;;1.50;1.40;;;14.70;99.90;;;;;;4995824;28;20216;-91
2021/11/11 11:24:30;;;;;;;1.10;0.93;;;14.60;99.90;;;;;;4995024;28;20253;-88
2021/11/11 11:27:04;;;;;;;1.10;1.00;;;14.80;99.90;;;;;;4992891;28;20309;-90
2021/11/11 11:29:35;;;;;;;2.10;1.53;;;14.80;99.90;;;;;;4995136;28;20593;-92
2021/11/11 11:32:09;;;;;;;1.67;0.97;;;15.00;99.90;;;;;;4996818;28;20215;-91
2021/11/11 11:34:36;;;;;;;2.20;1.67;;;15.00;99.90;;;;;;4996181;28;20343;-91
2021/11/11 11:37:11;;;;;;;3.50;1.93;;;15.30;99.90;;;;;;4993143;28;20219;-90
2021/11/11 11:39:45;;;;;;;4.13;2.20;;;15.50;99.90;;;;;;4996638;28;20183;-90
2021/11/11 11:42:18;;;;;;;2.07;1.53;;;15.70;99.90;;;;;;4996443;28;20196;-90
2021/11/11 11:44:49;;;;;;;3.23;2.20;;;15.60;99.90;;;;;;4985849;28;20227;-91
2021/11/11 11:47:21;;;;;;;10.77;5.63;;;15.60;99.90;;;;;;4993421;28;20216;-87
2021/11/11 11:49:59;;;;;;;6.43;5.43;;;15.50;99.90;;;;;;4994130;28;20322;-88
2021/11/11 11:52:29;;;;;;;10.20;5.47;;;15.20;99.90;;;;;;4995549;28;20222;-91
2021/11/11 11:57:33;;;;;;;14.27;7.27;;;14.80;99.90;;;;;;4992649;28;20199;-90
2021/11/11 12:00:06;;;;;;;15.47;7.13;;;14.70;99.90;;;;;;4992751;28;20310;-92
2021/11/11 12:10:25;;;;;;;13.10;7.20;;;14.70;99.90;;;;;;4994046;28;20394;-90
2021/11/11 12:28:29;;;;;;;10.40;6.50;;;14.90;99.90;;;;;;4993099;28;20302;-90
2021/11/11 12:38:41;;;;;;;13.57;7.10;;;14.60;99.90;;;;;;4992505;28;20224;-86
2021/11/11 12:41:16;;;;;;;10.30;6.80;;;14.70;99.90;;;;;;4983376;28;20227;-84
2021/11/11 12:43:43;;;;;;;8.53;5.80;;;14.70;99.90;;;;;;4991236;28;20218;-87
2021/11/11 12:46:40;;;;;;;11.63;5.60;;;14.80;99.90;;;;;;4993553;28;20282;-89
2021/11/11 12:49:35;;;;;;;6.13;3.87;;;14.70;99.90;;;;;;4989400;28;20254;-85
2021/11/11 12:52:12;;;;;;;6.00;4.13;;;14.50;99.90;;;;;;4993138;28;20266;-85
2021/11/11 12:54:43;;;;;;;9.53;4.50;;;14.60;99.90;;;;;;4987829;28;20267;-88
2021/11/11 12:57:11;;;;;;;7.47;4.47;;;14.60;99.90;;;;;;4973078;28;20215;-86
2021/11/11 12:59:39;;;;;;;6.97;4.07;;;14.70;99.90;;;;;;5006198;28;20231;-88
2021/11/11 13:02:06;;;;;;;8.83;5.13;;;14.70;99.90;;;;;;4990514;28;20314;-89
2021/11/11 13:04:50;;;;;;;6.33;4.00;;;14.80;99.90;;;;;;4974277;28;20239;-86
2021/11/11 13:07:33;;;;;;;6.13;3.57;;;14.80;99.90;;;;;;4988260;28;20234;-89
2021/11/11 13:10:19;;;;;;;4.77;3.53;;;14.80;99.90;;;;;;4991490;28;20226;-88
2021/11/11 13:13:12;;;;;;;5.77;3.97;;;14.80;99.90;;;;;;4992227;28;20241;-85
2021/11/11 13:15:42;;;;;;;6.37;3.97;;;14.90;99.90;;;;;;4993059;28;20192;-83
2021/11/11 13:18:09;;;;;;;9.20;4.67;;;14.90;99.90;;;;;;4999523;28;20203;-84
2021/11/11 13:20:46;;;;;;;9.03;5.17;;;14.90;99.90;;;;;;5008927;28;20223;-86
2021/11/11 13:23:30;;;;;;;7.37;3.97;;;14.90;99.90;;;;;;4973619;28;20709;-85
2021/11/11 13:54:20;;;;;;;13.37;5.97;;;14.70;99.90;;;;;;4987223;28;20224;-85
2021/11/11 15:04:24;;;;;;;18.37;7.47;;;14.60;99.90;;;;;;4994890;28;20426;-88
2021/11/11 16:01:17;;;;;;;30.03;16.13;;;12.70;99.90;;;;;;4995598;28;21420;-88
2021/11/11 16:25:37;;;;;;;30.53;15.63;;;12.70;99.90;;;;;;4994744;28;20231;-81
2021/11/11 16:28:01;;;;;;;28.33;14.20;;;12.70;99.90;;;;;;4990918;28;20216;-83
2021/11/11 16:30:26;;;;;;;34.23;16.03;;;12.70;99.90;;;;;;4991949;28;20192;-84